createdAt,value
2023-05-04T00:02:40.138Z,32.75
2023-05-04T00:12:41.513Z,32.78
2023-05-04T00:22:42.885Z,32.63
2023-05-04T00:32:44.228Z,32.65
2023-05-04T00:42:45.515Z,32.59
2023-05-04T00:52:46.909Z,32.82
2023-05-04T01:02:48.207Z,32.70
2023-05-04T01:12:49.554Z,32.63
2023-05-04T01:22:50.819Z,32.51
2023-05-04T01:32:52.127Z,32.73
2023-05-04T01:42:53.371Z,32.68
2023-05-04T01:52:54.621Z,32.66
2023-05-04T02:02:55.901Z,32.60
2023-05-04T02:12:57.286Z,32.64
2023-05-04T02:22:58.718Z,32.88
2023-05-04T02:33:00.014Z,32.95
2023-05-04T02:43:01.295Z,32.69
2023-05-04T02:53:02.530Z,32.60
2023-05-04T03:03:03.827Z,32.67
2023-05-04T03:13:05.160Z,32.61
2023-05-04T03:23:06.544Z,32.78
2023-05-04T03:33:07.884Z,32.44
2023-05-04T03:43:09.172Z,32.63
2023-05-04T03:53:10.429Z,32.89
2023-05-04T04:03:11.948Z,32.80
2023-05-04T04:13:13.546Z,32.80
2023-05-04T04:23:14.906Z,32.79
2023-05-04T04:33:16.136Z,33.03
2023-05-04T04:43:17.381Z,33.31
2023-05-04T04:53:18.661Z,33.40
2023-05-04T05:03:19.941Z,33.77
2023-05-04T05:13:21.370Z,33.95
2023-05-04T05:23:22.721Z,33.92
2023-05-04T05:33:23.948Z,35.23
2023-05-04T05:43:25.232Z,35.72
2023-05-04T05:53:26.511Z,35.92
2023-05-04T06:03:28.207Z,36.19
2023-05-04T06:13:29.621Z,36.23
2023-05-04T06:23:30.869Z,36.43
2023-05-04T06:33:32.101Z,36.50
2023-05-04T06:43:33.404Z,36.65
2023-05-04T06:53:34.903Z,36.68
2023-05-04T07:03:36.270Z,36.80
2023-05-04T07:13:37.569Z,37.16
2023-05-04T07:23:38.855Z,37.25
2023-05-04T07:33:40.129Z,37.24
2023-05-04T07:43:43.588Z,37.53
2023-05-04T07:53:44.833Z,37.58
2023-05-04T08:03:46.168Z,37.86
2023-05-04T08:13:47.438Z,37.71
2023-05-04T08:23:48.705Z,38.09
2023-05-04T08:33:50.281Z,38.04
2023-05-04T08:43:51.551Z,38.04
2023-05-04T08:53:52.865Z,38.03
2023-05-04T09:03:56.994Z,38.16
2023-05-04T09:14:04.775Z,38.30
2023-05-04T09:24:12.801Z,37.79
2023-05-04T09:34:20.778Z,38.16
2023-05-04T09:44:29.986Z,38.66
2023-05-04T09:54:37.760Z,38.75
2023-05-04T10:04:45.791Z,38.93
2023-05-04T10:14:53.810Z,38.69
2023-05-04T10:25:04.446Z,38.86
2023-05-04T10:35:12.784Z,38.98
2023-05-04T10:45:21.791Z,39.03
2023-05-04T10:55:32.263Z,39.25
2023-05-04T11:05:39.841Z,39.39
2023-05-04T11:15:43.781Z,39.34
2023-05-04T11:25:51.827Z,39.32
2023-05-04T11:36:00.790Z,39.35
2023-05-04T11:46:08.817Z,39.56
2023-05-04T11:56:16.798Z,39.19
2023-05-04T12:06:24.811Z,39.24
2023-05-04T12:16:33.906Z,39.32
2023-05-04T12:26:41.787Z,39.30
2023-05-04T12:36:49.840Z,39.08
2023-05-04T12:46:58.774Z,38.72
2023-05-04T12:57:06.792Z,38.97
2023-05-04T13:07:15.884Z,38.76
2023-05-04T13:17:23.864Z,39.15
2023-05-04T13:27:31.782Z,38.86
2023-05-04T13:37:39.813Z,39.13
2023-05-04T13:47:47.995Z,39.13
2023-05-04T13:57:55.797Z,39.13
2023-05-04T14:08:04.836Z,38.67
2023-05-04T14:18:12.905Z,38.95
2023-05-04T14:28:20.837Z,38.64
2023-05-04T14:38:29.806Z,37.93
2023-05-04T14:48:37.833Z,37.71
2023-05-04T14:58:45.805Z,37.56
2023-05-04T15:08:53.868Z,37.14
2023-05-04T15:19:02.840Z,37.09
2023-05-04T15:29:10.823Z,37.07
2023-05-04T15:39:18.798Z,36.84
2023-05-04T15:49:26.828Z,36.70
2023-05-04T15:59:35.866Z,36.68
2023-05-04T16:30:34.735Z,36.40
2023-05-04T16:40:37.676Z,36.78
2023-05-04T16:50:38.961Z,36.68
2023-05-04T17:00:44.204Z,36.75
2023-05-04T17:10:45.602Z,36.77
2023-05-04T17:20:46.931Z,36.81
2023-05-04T17:30:50.055Z,36.80
2023-05-04T17:40:57.940Z,36.87
2023-05-04T17:51:06.863Z,36.88
2023-05-04T18:01:14.923Z,36.70
2023-05-04T18:11:22.885Z,36.83
2023-05-04T18:21:32.064Z,36.70
2023-05-04T18:31:42.889Z,36.60
2023-05-04T18:41:48.279Z,36.50
2023-05-04T18:51:56.029Z,36.47
2023-05-04T19:01:57.299Z,36.49
2023-05-04T19:11:58.630Z,36.48
2023-05-04T19:21:59.946Z,36.47
2023-05-04T19:32:05.601Z,36.48
2023-05-04T19:42:13.645Z,36.38
2023-05-04T19:52:15.857Z,36.24
2023-05-04T20:02:17.138Z,36.54
2023-05-04T20:12:18.436Z,36.79
2023-05-04T20:22:19.748Z,36.41
2023-05-04T20:32:21.492Z,36.55
2023-05-04T20:42:22.820Z,36.33
2023-05-04T20:52:24.100Z,36.31
2023-05-04T21:02:25.393Z,36.27
2023-05-04T21:12:26.650Z,36.40
2023-05-04T21:22:27.921Z,36.40
2023-05-04T21:32:29.199Z,36.47
2023-05-04T21:42:31.487Z,36.58
2023-05-04T21:52:32.817Z,36.60
2023-05-04T22:02:34.136Z,36.57
2023-05-04T22:12:35.429Z,36.60
2023-05-04T22:22:36.699Z,37.03
2023-05-04T22:32:37.994Z,37.22
2023-05-04T22:42:39.297Z,37.33
2023-05-04T22:52:40.562Z,37.54
2023-05-04T23:02:41.899Z,37.79
2023-05-04T23:12:44.738Z,38.36
2023-05-04T23:22:46.053Z,38.86
2023-05-04T23:32:47.326Z,39.23
2023-05-04T23:42:48.588Z,39.22
2023-05-04T23:52:49.860Z,39.89
